createdAt,value
2023-05-21T00:00:03.329Z,14.70
2023-05-21T00:01:03.925Z,14.70
2023-05-21T00:02:03.560Z,14.70
2023-05-21T00:03:03.212Z,14.60
2023-05-21T00:04:06.505Z,14.60
2023-05-21T00:06:06.162Z,14.60
2023-05-21T00:07:06.304Z,14.60
2023-05-21T00:08:06.285Z,14.60
2023-05-21T00:09:03.740Z,14.60
2023-05-21T00:10:03.585Z,14.60
2023-05-21T00:11:05.952Z,14.60
2023-05-21T00:12:03.501Z,14.60
2023-05-21T00:13:12.637Z,14.50
2023-05-21T00:14:06.625Z,14.50
2023-05-21T00:15:04.084Z,14.50
2023-05-21T00:16:06.237Z,14.50
2023-05-21T00:17:03.842Z,14.50
2023-05-21T00:18:06.481Z,14.50
2023-05-21T00:19:04.253Z,14.50
2023-05-21T00:20:04.032Z,14.50
2023-05-21T00:22:08.408Z,14.50
2023-05-21T00:23:03.855Z,14.50
2023-05-21T00:24:06.096Z,14.40
2023-05-21T00:25:03.637Z,14.50
2023-05-21T00:26:03.304Z,14.40
2023-05-21T00:27:04.065Z,14.40
2023-05-21T00:28:06.282Z,14.50
2023-05-21T00:29:06.303Z,14.40
2023-05-21T00:30:03.704Z,14.40
2023-05-21T00:31:06.375Z,14.40
2023-05-21T00:32:12.544Z,14.40
2023-05-21T00:34:03.720Z,14.40
2023-05-21T00:35:03.430Z,14.40
2023-05-21T00:36:04.135Z,14.40
2023-05-21T00:37:05.907Z,14.40
2023-05-21T00:38:03.306Z,14.30
2023-05-21T00:39:06.550Z,14.40
2023-05-21T00:40:04.001Z,14.40
2023-05-21T00:41:04.093Z,14.40
2023-05-21T00:42:03.697Z,14.40
2023-05-21T00:43:03.284Z,14.40
2023-05-21T00:44:06.386Z,14.30
2023-05-21T00:45:03.851Z,14.30
2023-05-21T00:46:03.744Z,14.30
2023-05-21T00:47:03.389Z,14.30
2023-05-21T00:48:06.477Z,14.30
2023-05-21T00:49:06.678Z,14.30
2023-05-21T00:50:05.738Z,14.30
2023-05-21T00:51:08.292Z,14.30
2023-05-21T00:52:03.721Z,14.20
2023-05-21T00:53:03.361Z,14.20
2023-05-21T00:54:04.076Z,14.20
2023-05-21T00:55:06.302Z,14.20
2023-05-21T00:56:03.828Z,14.10
2023-05-21T00:57:05.966Z,14.10
2023-05-21T00:58:03.352Z,14.10
2023-05-21T00:59:03.972Z,14.10
2023-05-21T01:00:06.396Z,14.10
2023-05-21T01:01:03.998Z,13.90
2023-05-21T01:02:03.558Z,14.00
2023-05-21T01:03:08.350Z,14.00
2023-05-21T01:04:03.921Z,14.00
2023-05-21T01:05:03.509Z,14.00
2023-05-21T01:06:04.113Z,14.00
2023-05-21T01:08:05.970Z,14.00
2023-05-21T01:09:04.932Z,13.90
2023-05-21T01:10:03.914Z,13.90
2023-05-21T01:11:06.130Z,13.90
2023-05-21T01:12:08.705Z,13.90
2023-05-21T01:13:03.196Z,13.90
2023-05-21T01:14:03.805Z,13.90
2023-05-21T01:15:05.898Z,13.80
2023-05-21T01:16:05.869Z,13.80
2023-05-21T01:17:03.352Z,13.80
2023-05-21T01:18:04.031Z,13.80
2023-05-21T01:19:06.284Z,13.70
2023-05-21T01:20:03.884Z,13.80
2023-05-21T01:21:05.981Z,13.70
2023-05-21T01:22:06.002Z,13.70
2023-05-21T01:23:03.494Z,13.70
2023-05-21T01:24:06.615Z,13.70
2023-05-21T01:25:04.114Z,13.70
2023-05-21T01:26:03.802Z,13.70
2023-05-21T01:28:03.980Z,13.70
2023-05-21T01:29:03.484Z,13.70
2023-05-21T01:30:04.084Z,13.60
2023-05-21T01:31:08.768Z,13.60
2023-05-21T01:32:03.363Z,13.70
2023-05-21T01:33:03.269Z,13.60
2023-05-21T01:34:05.857Z,13.60
2023-05-21T01:35:03.546Z,13.60
2023-05-21T01:36:04.120Z,13.60
2023-05-21T01:38:05.996Z,13.50
2023-05-21T01:39:03.947Z,13.50
2023-05-21T01:40:03.554Z,13.50
2023-05-21T01:41:03.118Z,13.50
2023-05-21T01:42:06.459Z,13.50
2023-05-21T01:43:06.404Z,13.50
2023-05-21T01:44:06.433Z,13.50
2023-05-21T01:45:06.469Z,13.50
2023-05-21T01:46:06.477Z,13.50
2023-05-21T01:47:06.569Z,13.50
2023-05-21T01:48:04.086Z,13.40
2023-05-21T01:49:06.169Z,13.40
2023-05-21T01:50:03.664Z,13.40
2023-05-21T01:51:05.917Z,13.50
2023-05-21T01:52:03.476Z,13.40
2023-05-21T01:53:03.957Z,13.40
2023-05-21T01:54:06.162Z,13.40
2023-05-21T01:55:08.686Z,13.40
2023-05-21T01:56:06.705Z,13.40
2023-05-21T01:57:04.157Z,13.40
2023-05-21T01:58:03.829Z,13.40
2023-05-21T01:59:03.429Z,13.30
2023-05-21T02:00:04.006Z,13.30
2023-05-21T02:01:03.558Z,13.30
2023-05-21T02:02:06.716Z,13.20
2023-05-21T02:03:05.944Z,13.20
2023-05-21T02:04:08.777Z,13.20
2023-05-21T02:05:06.042Z,13.20
2023-05-21T02:06:03.444Z,13.20
2023-05-21T02:07:04.058Z,13.20
2023-05-21T02:09:03.244Z,13.10
2023-05-21T02:10:06.430Z,13.10
2023-05-21T02:11:06.460Z,13.10
2023-05-21T02:12:03.941Z,13.00
2023-05-21T02:13:08.685Z,13.00
2023-05-21T02:14:08.255Z,13.10
2023-05-21T02:15:03.661Z,13.40
2023-05-21T02:16:03.662Z,0.30
2023-05-21T02:17:05.876Z,13.10
2023-05-21T02:18:03.474Z,13.00
2023-05-21T02:19:03.257Z,13.10
2023-05-21T02:20:03.622Z,13.10
2023-05-21T02:21:08.283Z,13.10
2023-05-21T02:22:03.939Z,13.10
2023-05-21T02:23:03.571Z,13.00
2023-05-21T02:24:06.697Z,13.00
2023-05-21T02:26:06.266Z,13.00
2023-05-21T02:27:03.807Z,13.00
2023-05-21T02:28:03.452Z,13.10
2023-05-21T02:29:06.628Z,13.00
2023-05-21T02:30:04.168Z,13.00
2023-05-21T02:31:03.855Z,13.00
2023-05-21T02:32:03.430Z,13.00
2023-05-21T02:33:04.047Z,13.00
2023-05-21T02:34:03.648Z,13.00
2023-05-21T02:35:05.937Z,13.00
2023-05-21T02:36:03.440Z,13.10
2023-05-21T02:37:06.657Z,13.00
2023-05-21T02:39:03.827Z,13.00
2023-05-21T02:40:06.005Z,13.00
2023-05-21T02:41:03.496Z,13.00
2023-05-21T02:42:06.734Z,13.00
2023-05-21T02:44:03.803Z,13.00
2023-05-21T02:45:05.989Z,13.00
2023-05-21T02:46:03.651Z,13.00
2023-05-21T02:47:03.445Z,13.00
2023-05-21T02:48:06.691Z,13.00
2023-05-21T02:50:06.344Z,13.00
2023-05-21T02:51:03.844Z,12.90
2023-05-21T02:52:03.617Z,13.00
2023-05-21T02:53:05.812Z,12.90
2023-05-21T02:54:05.871Z,12.90
2023-05-21T02:55:05.967Z,12.90
2023-05-21T02:56:03.499Z,12.90
2023-05-21T02:57:04.034Z,12.90
2023-05-21T02:58:06.200Z,12.90
2023-05-21T02:59:03.676Z,12.90
2023-05-21T03:00:03.242Z,12.90
2023-05-21T03:01:06.494Z,12.90
2023-05-21T03:02:04.056Z,12.90
2023-05-21T03:03:03.972Z,12.90
2023-05-21T03:04:03.768Z,12.90
2023-05-21T03:05:06.048Z,12.90
2023-05-21T03:06:06.074Z,12.80
2023-05-21T03:07:06.078Z,12.90
2023-05-21T03:08:06.120Z,12.80
2023-05-21T03:09:06.162Z,12.80
2023-05-21T03:10:06.274Z,12.80
2023-05-21T03:11:03.842Z,12.70
2023-05-21T03:12:03.566Z,12.80
2023-05-21T03:14:06.392Z,12.60
2023-05-21T03:15:03.860Z,12.60
2023-05-21T03:16:08.836Z,12.70
2023-05-21T03:17:06.391Z,12.60
2023-05-21T03:18:04.018Z,12.60
2023-05-21T03:19:05.727Z,12.60
2023-05-21T03:20:08.456Z,12.50
2023-05-21T03:21:04.078Z,12.60
2023-05-21T03:22:03.732Z,12.60
2023-05-21T03:23:05.900Z,12.60
2023-05-21T03:24:03.429Z,12.60
2023-05-21T03:25:03.276Z,12.60
2023-05-21T03:26:03.914Z,12.60
2023-05-21T03:27:08.679Z,12.50
2023-05-21T03:28:03.242Z,12.50
2023-05-21T03:29:03.908Z,12.60
2023-05-21T03:30:04.801Z,12.60
2023-05-21T03:31:05.908Z,12.50
2023-05-21T03:32:03.835Z,12.50
2023-05-21T03:33:03.610Z,12.60
2023-05-21T03:34:04.083Z,12.60
2023-05-21T03:35:03.822Z,12.50
2023-05-21T03:36:06.021Z,12.60
2023-05-21T03:37:03.566Z,12.50
2023-05-21T03:38:03.346Z,12.60
2023-05-21T03:39:04.010Z,12.50
2023-05-21T03:41:09.009Z,12.50
2023-05-21T03:42:06.079Z,12.50
2023-05-21T03:43:03.589Z,12.50
2023-05-21T03:44:05.767Z,12.60
2023-05-21T03:45:03.233Z,12.50
2023-05-21T03:46:06.464Z,12.60
2023-05-21T03:47:06.743Z,12.50
2023-05-21T03:48:05.824Z,12.40
2023-05-21T03:49:03.445Z,12.50
2023-05-21T03:50:03.785Z,12.50
2023-05-21T03:51:03.540Z,12.50
2023-05-21T03:52:03.242Z,12.50
2023-05-21T03:53:06.457Z,12.60
2023-05-21T03:54:04.048Z,12.50
2023-05-21T03:55:03.733Z,12.60
2023-05-21T03:56:03.398Z,12.60
2023-05-21T03:57:06.509Z,12.60
2023-05-21T03:58:06.512Z,12.50
2023-05-21T03:59:04.088Z,12.50
2023-05-21T04:00:06.222Z,12.50
2023-05-21T04:01:08.800Z,12.50
2023-05-21T04:03:03.998Z,12.50
2023-05-21T04:05:03.707Z,12.50
2023-05-21T04:06:05.838Z,12.60
2023-05-21T04:07:03.315Z,12.50
2023-05-21T04:08:03.885Z,12.50
2023-05-21T04:09:06.078Z,12.50
2023-05-21T04:10:03.639Z,12.50
2023-05-21T04:11:08.368Z,12.50
2023-05-21T04:12:03.999Z,12.50
2023-05-21T04:13:03.565Z,12.50
2023-05-21T04:14:03.253Z,12.50
2023-05-21T04:15:03.850Z,12.50
2023-05-21T04:17:05.882Z,12.50
2023-05-21T04:18:06.010Z,12.50
2023-05-21T04:19:03.621Z,12.50
2023-05-21T04:20:08.910Z,12.60
2023-05-21T04:21:13.633Z,12.50
2023-05-21T04:22:04.161Z,12.50
2023-05-21T04:23:03.936Z,12.60
2023-05-21T04:24:06.150Z,12.60
2023-05-21T04:25:09.069Z,12.60
2023-05-21T04:27:04.029Z,12.60
2023-05-21T04:28:03.582Z,12.60
2023-05-21T04:29:03.272Z,12.60
2023-05-21T04:30:03.845Z,12.70
2023-05-21T04:31:08.665Z,12.70
2023-05-21T04:32:04.159Z,12.70
2023-05-21T04:33:06.307Z,12.70
2023-05-21T04:34:06.550Z,12.70
2023-05-21T04:35:04.069Z,12.70
2023-05-21T04:36:04.056Z,12.80
2023-05-21T04:37:03.767Z,12.80
2023-05-21T04:38:04.367Z,12.70
2023-05-21T04:41:03.347Z,12.80
2023-05-21T04:42:06.567Z,12.80
2023-05-21T04:43:04.110Z,12.80
2023-05-21T04:44:03.650Z,12.90
2023-05-21T04:45:03.349Z,12.80
2023-05-21T04:46:09.033Z,13.00
2023-05-21T04:47:12.580Z,12.90
2023-05-21T04:48:04.055Z,12.90
2023-05-21T04:49:03.719Z,13.00
2023-05-21T04:50:03.355Z,13.00
2023-05-21T04:51:06.672Z,13.10
2023-05-21T04:52:04.215Z,13.00
2023-05-21T04:53:06.488Z,13.10
2023-05-21T04:54:06.557Z,13.10
2023-05-21T04:55:04.100Z,13.10
2023-05-21T04:56:06.328Z,13.20
2023-05-21T04:57:03.877Z,13.20
2023-05-21T04:58:06.036Z,13.20
2023-05-21T04:59:05.273Z,13.20
2023-05-21T05:00:04.141Z,13.30
2023-05-21T05:01:03.733Z,13.30
2023-05-21T05:02:03.795Z,13.30
2023-05-21T05:04:04.225Z,13.50
2023-05-21T05:05:03.990Z,13.50
2023-05-21T05:07:06.765Z,13.60
2023-05-21T05:08:05.891Z,13.60
2023-05-21T05:09:06.053Z,13.70
2023-05-21T05:10:03.580Z,13.70
2023-05-21T05:11:03.178Z,13.80
2023-05-21T05:12:06.336Z,14.00
2023-05-21T05:13:06.389Z,14.10
2023-05-21T05:14:06.456Z,14.20
2023-05-21T05:15:03.915Z,14.30
2023-05-21T05:16:03.522Z,14.40
2023-05-21T05:17:03.535Z,14.60
2023-05-21T05:19:03.811Z,15.00
2023-05-21T05:20:03.574Z,15.20
2023-05-21T05:21:05.726Z,15.60
2023-05-21T05:22:03.224Z,15.60
2023-05-21T05:23:03.856Z,15.70
2023-05-21T05:24:08.589Z,16.20
2023-05-21T05:25:04.139Z,16.20
2023-05-21T05:26:03.672Z,16.30
2023-05-21T05:27:03.378Z,16.50
2023-05-21T05:28:04.072Z,16.70
2023-05-21T05:29:03.650Z,16.80
2023-05-21T05:30:03.280Z,16.80
2023-05-21T05:31:09.109Z,17.00
2023-05-21T05:32:03.672Z,16.90
2023-05-21T05:33:05.885Z,17.00
2023-05-21T05:34:03.494Z,16.90
2023-05-21T05:35:06.597Z,17.00
2023-05-21T05:36:06.739Z,17.00
2023-05-21T05:38:03.897Z,17.10
2023-05-21T05:39:06.211Z,17.10
2023-05-21T05:40:03.641Z,17.10
2023-05-21T05:41:03.343Z,17.10
2023-05-21T05:42:12.650Z,17.10
2023-05-21T05:43:06.584Z,17.10
2023-05-21T05:44:07.837Z,17.20
2023-05-21T05:45:08.636Z,17.10
2023-05-21T05:46:09.168Z,17.20
2023-05-21T05:47:03.619Z,17.10
2023-05-21T05:48:03.231Z,17.20
2023-05-21T05:49:06.427Z,17.20
2023-05-21T05:50:12.691Z,17.20
2023-05-21T05:51:04.137Z,17.20
2023-05-21T05:52:06.357Z,17.40
2023-05-21T05:53:06.451Z,17.40
2023-05-21T05:54:06.502Z,17.50
2023-05-21T05:55:03.968Z,17.50
2023-05-21T05:56:06.060Z,17.60
2023-05-21T05:57:03.593Z,17.60
2023-05-21T05:58:03.333Z,17.70
2023-05-21T05:59:03.931Z,17.70
2023-05-21T06:00:03.556Z,17.70
2023-05-21T06:01:05.786Z,17.90
2023-05-21T06:02:03.257Z,17.90
2023-05-21T06:03:06.589Z,18.10
2023-05-21T06:04:05.717Z,18.10
2023-05-21T06:05:03.214Z,18.10
2023-05-21T06:06:03.800Z,18.20
2023-05-21T06:07:08.504Z,18.30
2023-05-21T06:08:03.971Z,18.30
2023-05-21T06:09:06.186Z,18.50
2023-05-21T06:10:06.202Z,18.50
2023-05-21T06:11:06.271Z,18.60
2023-05-21T06:12:03.745Z,18.60
2023-05-21T06:13:08.429Z,18.80
2023-05-21T06:14:03.853Z,18.80
2023-05-21T06:15:03.453Z,18.90
2023-05-21T06:16:06.750Z,19.00
2023-05-21T06:17:08.361Z,19.10
2023-05-21T06:18:03.881Z,19.00
2023-05-21T06:19:03.538Z,19.10
2023-05-21T06:20:03.323Z,19.10
2023-05-21T06:21:06.507Z,19.10
2023-05-21T06:22:03.965Z,19.10
2023-05-21T06:24:04.130Z,19.10
2023-05-21T06:25:03.716Z,19.10
2023-05-21T06:26:08.479Z,19.10
2023-05-21T06:27:04.169Z,19.10
2023-05-21T06:28:03.734Z,19.20
2023-05-21T06:29:03.384Z,19.20
2023-05-21T06:30:05.817Z,19.20
2023-05-21T06:31:03.265Z,19.10
2023-05-21T06:32:03.901Z,19.20
2023-05-21T06:33:06.186Z,19.20
2023-05-21T06:34:06.465Z,19.20
2023-05-21T06:35:03.994Z,19.20
2023-05-21T06:36:06.169Z,19.20
2023-05-21T06:37:03.628Z,19.20
2023-05-21T06:38:05.787Z,19.20
2023-05-21T06:39:05.832Z,19.20
2023-05-21T06:40:05.908Z,19.20
2023-05-21T06:41:03.393Z,19.20
2023-05-21T06:42:04.009Z,19.30
2023-05-21T06:43:06.062Z,19.30
2023-05-21T06:44:03.570Z,19.30
2023-05-21T06:45:12.688Z,19.30
2023-05-21T06:46:06.757Z,19.40
2023-05-21T06:47:05.763Z,19.40
2023-05-21T06:48:05.932Z,19.50
2023-05-21T06:49:06.058Z,19.60
2023-05-21T06:50:03.524Z,19.50
2023-05-21T06:51:06.682Z,19.70
2023-05-21T06:53:06.472Z,19.70
2023-05-21T06:54:06.548Z,19.90
2023-05-21T06:55:06.588Z,20.00
2023-05-21T06:56:04.124Z,19.90
2023-05-21T06:57:06.214Z,19.90
2023-05-21T06:58:06.192Z,20.00
2023-05-21T06:59:03.633Z,20.00
2023-05-21T07:00:03.251Z,20.00
2023-05-21T07:01:03.953Z,20.10
2023-05-21T07:02:08.796Z,20.10
2023-05-21T07:03:03.599Z,20.10
2023-05-21T07:04:03.225Z,20.00
2023-05-21T07:05:03.838Z,20.10
2023-05-21T07:06:03.450Z,20.10
2023-05-21T07:07:04.014Z,20.00
2023-05-21T07:08:06.140Z,20.00
2023-05-21T07:09:06.175Z,20.00
2023-05-21T07:10:06.258Z,20.00
2023-05-21T07:11:06.360Z,19.90
2023-05-21T07:12:03.787Z,20.00
2023-05-21T07:13:08.439Z,19.90
2023-05-21T07:14:06.501Z,19.90
2023-05-21T07:15:06.535Z,20.00
2023-05-21T07:16:04.004Z,20.00
2023-05-21T07:17:03.818Z,19.90
2023-05-21T07:18:06.202Z,20.00
2023-05-21T07:19:06.402Z,20.00
2023-05-21T07:20:03.861Z,20.10
2023-05-21T07:21:08.470Z,20.10
2023-05-21T07:22:06.403Z,20.10
2023-05-21T07:23:06.328Z,20.10
2023-05-21T07:24:06.316Z,20.10
2023-05-21T07:25:03.816Z,20.10
2023-05-21T07:26:03.417Z,20.10
2023-05-21T07:27:08.822Z,20.10
2023-05-21T07:28:05.933Z,20.20
2023-05-21T07:29:03.230Z,20.20
2023-05-21T07:30:06.385Z,20.40
2023-05-21T07:31:06.563Z,20.40
2023-05-21T07:32:04.141Z,20.40
2023-05-21T07:33:03.841Z,20.40
2023-05-21T07:34:06.254Z,20.40
2023-05-21T07:35:06.465Z,20.40
2023-05-21T07:36:04.007Z,20.40
2023-05-21T07:37:08.656Z,20.40
2023-05-21T07:38:06.717Z,20.50
2023-05-21T07:40:03.684Z,20.40
2023-05-21T07:41:03.337Z,20.50
2023-05-21T07:42:03.958Z,20.40
2023-05-21T07:44:03.305Z,20.50
2023-05-21T07:45:03.849Z,20.50
2023-05-21T07:46:03.469Z,20.60
2023-05-21T07:47:04.155Z,20.60
2023-05-21T07:48:06.385Z,20.70
2023-05-21T07:49:06.422Z,20.80
2023-05-21T07:50:06.486Z,20.80
2023-05-21T07:51:03.975Z,20.80
2023-05-21T07:52:03.514Z,20.80
2023-05-21T07:53:05.808Z,20.90
2023-05-21T07:54:03.506Z,20.90
2023-05-21T07:55:04.053Z,21.00
2023-05-21T07:56:06.281Z,21.10
2023-05-21T07:57:03.836Z,21.10
2023-05-21T07:59:03.928Z,21.20
2023-05-21T08:00:06.117Z,21.20
2023-05-21T08:01:06.192Z,21.40
2023-05-21T08:02:03.690Z,21.40
2023-05-21T08:03:03.426Z,21.50
2023-05-21T08:04:04.355Z,21.60
2023-05-21T08:06:03.257Z,21.70
2023-05-21T08:07:03.882Z,21.70
2023-05-21T08:09:06.685Z,21.80
2023-05-21T08:11:06.339Z,22.00
2023-05-21T08:12:06.344Z,22.00
2023-05-21T08:13:03.770Z,22.00
2023-05-21T08:14:03.326Z,22.00
2023-05-21T08:15:06.411Z,22.10
2023-05-21T08:16:06.422Z,22.00
2023-05-21T08:17:03.978Z,22.00
2023-05-21T08:18:03.682Z,22.10
2023-05-21T08:19:05.969Z,22.10
2023-05-21T08:20:03.562Z,22.10
2023-05-21T08:21:03.241Z,22.10
2023-05-21T08:22:03.815Z,22.20
2023-05-21T08:23:03.551Z,22.20
2023-05-21T08:24:05.814Z,22.30
2023-05-21T08:25:05.868Z,22.30
2023-05-21T08:26:03.426Z,22.30
2023-05-21T08:27:06.551Z,22.40
2023-05-21T08:28:04.072Z,22.30
2023-05-21T08:29:03.747Z,22.40
2023-05-21T08:31:06.528Z,22.50
2023-05-21T08:32:12.869Z,22.50
2023-05-21T08:34:03.971Z,22.60
2023-05-21T08:35:03.579Z,22.50
2023-05-21T08:36:05.805Z,22.80
2023-05-21T08:37:03.223Z,22.80
2023-05-21T08:38:03.822Z,22.80
2023-05-21T08:39:03.411Z,23.00
2023-05-21T08:40:04.107Z,23.10
2023-05-21T08:41:03.676Z,23.20
2023-05-21T08:42:05.851Z,23.30
2023-05-21T08:43:03.282Z,23.20
2023-05-21T08:44:03.898Z,23.40
2023-05-21T08:45:03.586Z,23.40
2023-05-21T08:46:03.204Z,23.40
2023-05-21T08:47:03.846Z,23.50
2023-05-21T08:49:03.990Z,23.60
2023-05-21T08:50:08.692Z,23.60
2023-05-21T08:51:03.235Z,23.60
2023-05-21T08:52:06.473Z,23.70
2023-05-21T08:53:07.440Z,23.60
2023-05-21T08:54:03.449Z,23.60
2023-05-21T08:55:04.224Z,23.70
2023-05-21T08:56:06.391Z,23.70
2023-05-21T08:57:06.385Z,23.80
2023-05-21T08:58:06.354Z,23.70
2023-05-21T08:59:06.423Z,23.70
2023-05-21T09:00:03.866Z,23.80
2023-05-21T09:01:03.497Z,23.80
2023-05-21T09:02:05.727Z,23.80
2023-05-21T09:03:03.302Z,23.80
2023-05-21T09:04:12.595Z,23.80
2023-05-21T09:05:04.088Z,23.80
2023-05-21T09:06:06.237Z,23.80
2023-05-21T09:07:03.664Z,23.70
2023-05-21T09:08:03.396Z,23.80
2023-05-21T09:09:04.041Z,23.80
2023-05-21T09:10:06.209Z,23.90
2023-05-21T09:11:03.677Z,23.80
2023-05-21T09:12:08.399Z,23.90
2023-05-21T09:13:03.981Z,23.90
2023-05-21T09:14:06.290Z,23.80
2023-05-21T09:15:03.893Z,23.80
2023-05-21T09:16:03.625Z,23.80
2023-05-21T09:18:03.910Z,23.90
2023-05-21T09:19:04.688Z,23.90
2023-05-21T09:20:08.663Z,24.00
2023-05-21T09:21:03.246Z,24.00
2023-05-21T09:22:03.935Z,24.00
2023-05-21T09:24:03.211Z,24.10
2023-05-21T09:25:03.886Z,24.10
2023-05-21T09:27:04.025Z,24.30
2023-05-21T09:28:06.228Z,24.30
2023-05-21T09:29:03.732Z,24.20
2023-05-21T09:30:03.377Z,24.40
2023-05-21T09:31:04.062Z,24.50
2023-05-21T09:33:03.669Z,24.50
2023-05-21T09:34:08.528Z,24.60
2023-05-21T09:35:09.148Z,24.60
2023-05-21T09:36:06.341Z,24.90
2023-05-21T09:37:06.476Z,24.80
2023-05-21T09:39:05.895Z,24.90
2023-05-21T09:40:03.395Z,24.90
2023-05-21T09:41:06.406Z,25.10
2023-05-21T09:42:06.450Z,25.10
2023-05-21T09:43:03.991Z,25.20
2023-05-21T09:44:11.077Z,25.10
2023-05-21T09:45:16.691Z,25.10
2023-05-21T09:47:03.807Z,25.10
2023-05-21T09:48:05.961Z,25.10
2023-05-21T09:49:03.488Z,25.10
2023-05-21T09:50:04.117Z,25.20
2023-05-21T09:51:06.453Z,25.10
2023-05-21T09:52:04.014Z,25.20
2023-05-21T09:53:03.670Z,25.20
2023-05-21T09:54:05.901Z,25.20
2023-05-21T09:55:03.437Z,25.10
2023-05-21T09:56:06.589Z,25.20
2023-05-21T09:57:04.049Z,25.40
2023-05-21T09:58:03.546Z,25.20
2023-05-21T09:59:05.728Z,25.40
2023-05-21T10:00:05.816Z,25.40
2023-05-21T10:01:03.286Z,25.40
2023-05-21T10:02:03.993Z,25.40
2023-05-21T10:03:03.877Z,25.70
2023-05-21T10:04:03.653Z,25.60
2023-05-21T10:05:03.190Z,25.60
2023-05-21T10:06:03.808Z,25.60
2023-05-21T10:07:06.070Z,25.60
2023-05-21T10:08:06.121Z,25.70
2023-05-21T10:09:05.702Z,25.60
2023-05-21T10:11:06.712Z,25.80
2023-05-21T10:13:06.393Z,25.80
2023-05-21T10:14:04.077Z,25.90
2023-05-21T10:15:03.688Z,26.00
2023-05-21T10:16:05.832Z,26.10
2023-05-21T10:17:03.473Z,26.10
2023-05-21T10:18:04.223Z,26.20
2023-05-21T10:19:06.535Z,26.20
2023-05-21T10:20:04.001Z,26.30
2023-05-21T10:21:06.095Z,26.30
2023-05-21T10:22:03.561Z,26.30
2023-05-21T10:23:07.410Z,26.40
2023-05-21T10:25:05.980Z,26.40
2023-05-21T10:26:05.943Z,26.40
2023-05-21T10:27:03.483Z,26.50
2023-05-21T10:28:04.150Z,26.80
2023-05-21T10:30:03.369Z,26.50
2023-05-21T10:31:03.936Z,26.60
2023-05-21T10:32:06.172Z,26.70
2023-05-21T10:33:03.903Z,26.70
2023-05-21T10:34:06.191Z,26.90
2023-05-21T10:35:03.846Z,26.90
2023-05-21T10:36:05.989Z,27.00
2023-05-21T10:37:03.445Z,27.00
2023-05-21T10:38:04.108Z,27.00
2023-05-21T10:40:06.525Z,27.30
2023-05-21T10:41:09.044Z,27.20
2023-05-21T10:42:08.349Z,27.20
2023-05-21T10:43:03.763Z,27.20
2023-05-21T10:44:03.369Z,27.20
2023-05-21T10:45:06.492Z,27.20
2023-05-21T10:46:03.975Z,27.20
2023-05-21T10:47:03.595Z,27.00
2023-05-21T10:48:05.781Z,27.20
2023-05-21T10:49:03.277Z,27.20
2023-05-21T10:50:03.991Z,27.20
2023-05-21T10:51:03.581Z,27.20
2023-05-21T10:52:04.155Z,27.20
2023-05-21T10:53:06.717Z,27.20
2023-05-21T10:54:03.835Z,27.20
2023-05-21T10:55:03.427Z,27.20
2023-05-21T10:56:04.009Z,27.20
2023-05-21T10:57:06.176Z,27.30
2023-05-21T10:58:03.608Z,27.30
2023-05-21T10:59:03.295Z,27.30
2023-05-21T11:00:03.969Z,27.30
2023-05-21T11:01:03.924Z,27.30
2023-05-21T11:02:06.205Z,27.30
2023-05-21T11:03:03.947Z,27.40
2023-05-21T11:04:03.596Z,27.40
2023-05-21T11:05:03.202Z,27.30
2023-05-21T11:06:03.766Z,27.30
2023-05-21T11:08:06.497Z,27.20
2023-05-21T11:09:06.531Z,27.30
2023-05-21T11:10:04.039Z,27.20
2023-05-21T11:11:03.623Z,27.20
2023-05-21T11:12:05.744Z,27.20
2023-05-21T11:13:03.278Z,27.20
2023-05-21T11:14:03.988Z,27.20
2023-05-21T11:15:06.195Z,27.30
2023-05-21T11:16:03.652Z,27.20
2023-05-21T11:17:05.820Z,27.20
2023-05-21T11:18:03.396Z,27.20
2023-05-21T11:19:04.081Z,27.20
2023-05-21T11:21:04.031Z,27.30
2023-05-21T11:22:03.645Z,27.50
2023-05-21T11:23:03.253Z,27.40
2023-05-21T11:24:03.870Z,27.50
2023-05-21T11:26:04.169Z,27.50
2023-05-21T11:28:08.895Z,27.70
2023-05-21T11:29:05.876Z,27.80
2023-05-21T11:30:03.374Z,27.80
2023-05-21T11:31:03.946Z,27.80
2023-05-21T11:33:03.327Z,27.90
2023-05-21T11:34:03.894Z,28.10
2023-05-21T11:35:03.558Z,28.00
2023-05-21T11:36:05.726Z,28.10
2023-05-21T11:37:03.195Z,28.00
2023-05-21T11:38:03.758Z,28.10
2023-05-21T11:39:03.508Z,28.20
2023-05-21T11:40:04.057Z,28.00
2023-05-21T11:41:06.110Z,28.00
2023-05-21T11:42:04.563Z,28.10
2023-05-21T11:43:03.726Z,28.00
2023-05-21T11:44:03.317Z,28.10
2023-05-21T11:45:03.979Z,28.10
2023-05-21T11:47:13.548Z,28.20
2023-05-21T11:48:06.534Z,28.40
2023-05-21T11:49:03.980Z,28.20
2023-05-21T11:50:06.041Z,28.40
2023-05-21T11:51:03.461Z,28.30
2023-05-21T11:52:04.044Z,28.30
2023-05-21T11:53:06.267Z,28.10
2023-05-21T11:54:03.780Z,28.40
2023-05-21T11:55:08.539Z,28.20
2023-05-21T11:56:06.568Z,28.20
2023-05-21T11:57:04.083Z,28.30
2023-05-21T11:58:03.770Z,28.00
2023-05-21T11:59:03.350Z,28.10
2023-05-21T12:00:04.111Z,28.10
2023-05-21T12:01:06.051Z,27.80
2023-05-21T12:02:03.468Z,28.00
2023-05-21T12:03:04.059Z,28.00
2023-05-21T12:05:03.350Z,27.70
2023-05-21T12:06:03.982Z,27.70
2023-05-21T12:08:03.983Z,27.60
2023-05-21T12:09:11.205Z,27.60
2023-05-21T12:10:03.189Z,27.50
2023-05-21T12:11:06.301Z,27.50
2023-05-21T12:12:06.310Z,27.50
2023-05-21T12:13:06.332Z,27.50
2023-05-21T12:14:03.824Z,27.50
2023-05-21T12:15:03.490Z,27.50
2023-05-21T12:16:06.626Z,27.60
2023-05-21T12:17:06.199Z,27.60
2023-05-21T12:18:06.255Z,27.70
2023-05-21T12:19:03.918Z,27.70
2023-05-21T12:20:03.579Z,27.70
2023-05-21T12:21:04.117Z,27.70
2023-05-21T12:22:03.693Z,27.80
2023-05-21T12:23:03.300Z,27.70
2023-05-21T12:24:03.965Z,27.70
2023-05-21T12:25:06.631Z,27.80
2023-05-21T12:26:09.168Z,27.80
2023-05-21T12:27:06.239Z,27.80
2023-05-21T12:28:06.301Z,27.80
2023-05-21T12:29:03.710Z,27.70
2023-05-21T12:30:03.358Z,27.80
2023-05-21T12:31:13.013Z,27.70
2023-05-21T12:32:03.545Z,27.80
2023-05-21T12:33:05.757Z,27.80
2023-05-21T12:34:05.900Z,27.80
2023-05-21T12:35:05.865Z,27.80
2023-05-21T12:36:03.389Z,27.80
2023-05-21T12:37:06.552Z,27.80
2023-05-21T12:38:04.163Z,27.80
2023-05-21T12:39:03.707Z,27.80
2023-05-21T12:40:03.783Z,27.80
2023-05-21T12:41:03.332Z,27.80
2023-05-21T12:42:04.015Z,27.80
2023-05-21T12:43:06.233Z,27.80
2023-05-21T12:44:06.246Z,27.80
2023-05-21T12:45:06.332Z,27.80
2023-05-21T12:46:06.481Z,27.80
2023-05-21T12:47:06.638Z,27.80
2023-05-21T12:48:04.141Z,27.80
2023-05-21T12:49:03.926Z,27.70
2023-05-21T12:50:06.084Z,27.70
2023-05-21T12:51:06.140Z,27.60
2023-05-21T12:52:03.715Z,27.60
2023-05-21T12:53:03.311Z,27.60
2023-05-21T12:54:03.935Z,27.60
2023-05-21T12:55:03.566Z,27.50
2023-05-21T12:56:05.736Z,27.60
2023-05-21T12:57:03.211Z,27.60
2023-05-21T12:58:03.849Z,27.70
2023-05-21T12:59:06.106Z,27.60
2023-05-21T13:00:06.124Z,27.60
2023-05-21T13:01:05.319Z,27.50
2023-05-21T13:02:04.224Z,27.50
2023-05-21T13:03:07.032Z,27.50
2023-05-21T13:04:03.881Z,27.50
2023-05-21T13:05:03.553Z,27.50
2023-05-21T13:06:06.727Z,27.40
2023-05-21T13:08:03.497Z,27.40
2023-05-21T13:09:06.753Z,27.40
2023-05-21T13:11:04.008Z,27.50
2023-05-21T13:12:06.293Z,27.40
2023-05-21T13:13:03.813Z,27.50
2023-05-21T13:14:08.470Z,27.40
2023-05-21T13:15:08.996Z,27.50
2023-05-21T13:16:03.567Z,27.40
2023-05-21T13:17:05.794Z,27.40
2023-05-21T13:18:03.455Z,27.50
2023-05-21T13:19:03.187Z,27.40
2023-05-21T13:20:03.741Z,27.40
2023-05-21T13:21:08.540Z,27.40
2023-05-21T13:22:09.172Z,27.40
2023-05-21T13:23:05.630Z,27.60
2023-05-21T13:24:06.068Z,27.40
2023-05-21T13:25:03.592Z,27.40
2023-05-21T13:26:05.774Z,27.30
2023-05-21T13:27:08.422Z,27.40
2023-05-21T13:28:04.002Z,27.40
2023-05-21T13:29:06.115Z,27.30
2023-05-21T13:30:03.565Z,27.30
2023-05-21T13:31:08.252Z,27.30
2023-05-21T13:32:06.204Z,27.30
2023-05-21T13:33:03.896Z,27.30
2023-05-21T13:34:05.553Z,27.20
2023-05-21T13:35:03.380Z,27.20
2023-05-21T13:36:03.971Z,27.20
2023-05-21T13:37:06.131Z,27.20
2023-05-21T13:38:03.643Z,27.20
2023-05-21T13:39:08.404Z,27.20
2023-05-21T13:40:06.525Z,27.10
2023-05-21T13:41:03.975Z,27.20
2023-05-21T13:42:06.216Z,27.20
2023-05-21T13:43:06.238Z,27.10
2023-05-21T13:44:03.693Z,27.10
2023-05-21T13:45:05.865Z,27.20
2023-05-21T13:46:03.304Z,27.20
2023-05-21T13:47:04.065Z,27.20